createdAt,value
2019-05-26T00:00:30.864Z,1.70
2019-05-26T00:01:30.766Z,2.00
2019-05-26T00:02:30.695Z,2.60
2019-05-26T00:03:30.622Z,2.80
2019-05-26T00:04:30.562Z,2.60
2019-05-26T00:05:30.480Z,2.40
2019-05-26T00:06:30.416Z,2.40
2019-05-26T00:07:31.073Z,2.40
2019-05-26T00:08:30.275Z,2.60
2019-05-26T00:09:30.210Z,2.90
2019-05-26T00:10:30.137Z,2.30
2019-05-26T00:11:30.065Z,2.40
2019-05-26T00:12:29.996Z,2.10
2019-05-26T00:13:29.925Z,2.00
2019-05-26T00:14:29.857Z,1.70
2019-05-26T00:15:29.795Z,2.70
2019-05-26T00:16:29.712Z,2.30
2019-05-26T00:17:29.646Z,2.60
2019-05-26T00:18:33.128Z,2.30
2019-05-26T00:19:29.508Z,3.60
2019-05-26T00:20:29.433Z,1.40
2019-05-26T00:21:29.367Z,2.10
2019-05-26T00:22:29.293Z,2.90
2019-05-26T00:23:29.224Z,1.90
2019-05-26T00:24:29.152Z,1.70
2019-05-26T00:25:29.096Z,2.20
2019-05-26T00:26:29.012Z,1.70
2019-05-26T00:27:28.950Z,2.20
2019-05-26T00:28:28.879Z,2.00
2019-05-26T00:29:28.804Z,2.60
2019-05-26T00:30:28.736Z,1.50
2019-05-26T00:31:28.666Z,2.50
2019-05-26T00:32:28.597Z,1.80
2019-05-26T00:33:28.528Z,1.50
2019-05-26T00:34:28.462Z,2.20
2019-05-26T00:35:28.420Z,1.90
2019-05-26T00:36:28.317Z,1.70
2019-05-26T00:37:28.244Z,1.70
2019-05-26T00:38:28.174Z,1.70
2019-05-26T00:39:28.112Z,1.70
2019-05-26T00:40:28.038Z,1.60
2019-05-26T00:41:27.968Z,2.80
2019-05-26T00:42:27.927Z,2.10
2019-05-26T00:43:27.824Z,1.70
2019-05-26T00:44:27.756Z,1.60
2019-05-26T00:45:27.694Z,2.30
2019-05-26T00:46:27.619Z,1.70
2019-05-26T00:47:27.549Z,2.00
2019-05-26T00:48:27.478Z,1.60
2019-05-26T00:49:27.411Z,2.10
2019-05-26T00:50:27.337Z,1.90
2019-05-26T00:51:27.294Z,1.70
2019-05-26T00:52:27.203Z,2.10
2019-05-26T00:53:27.129Z,2.00
2019-05-26T00:54:27.060Z,1.80
2019-05-26T00:55:26.986Z,2.00
2019-05-26T00:56:26.920Z,3.20
2019-05-26T00:57:26.845Z,3.50
2019-05-26T00:58:26.778Z,1.90
2019-05-26T00:59:26.711Z,1.80
2019-05-26T01:00:26.643Z,1.80
2019-05-26T01:01:26.568Z,2.50
2019-05-26T01:02:26.496Z,1.60
2019-05-26T01:03:26.430Z,2.60
2019-05-26T01:04:26.361Z,2.40
2019-05-26T01:05:26.295Z,1.90
2019-05-26T01:06:26.220Z,2.10
2019-05-26T01:07:26.150Z,2.30
2019-05-26T01:08:26.082Z,2.00
2019-05-26T01:09:26.017Z,2.30
2019-05-26T01:10:25.947Z,2.10
2019-05-26T01:11:25.872Z,1.90
2019-05-26T01:12:25.797Z,2.80
2019-05-26T01:13:25.734Z,1.80
2019-05-26T01:14:25.684Z,3.10
2019-05-26T01:15:25.588Z,2.30
2019-05-26T01:16:25.518Z,2.40
2019-05-26T01:17:25.445Z,2.20
2019-05-26T01:18:25.386Z,1.80
2019-05-26T01:19:25.309Z,2.00
2019-05-26T01:20:25.237Z,2.70
2019-05-26T01:21:25.168Z,2.20
2019-05-26T01:22:25.095Z,2.30
2019-05-26T01:23:25.026Z,1.90
2019-05-26T01:24:24.952Z,2.10
2019-05-26T01:25:24.885Z,2.00
2019-05-26T01:26:24.811Z,2.30
2019-05-26T01:27:24.749Z,1.90
2019-05-26T01:28:24.680Z,1.70
2019-05-26T01:29:24.609Z,1.70
2019-05-26T01:30:24.541Z,3.70
2019-05-26T01:31:24.464Z,2.60
2019-05-26T01:32:24.394Z,1.90
2019-05-26T01:33:24.323Z,2.70
2019-05-26T01:34:24.255Z,2.10
2019-05-26T01:35:24.178Z,2.00
2019-05-26T01:36:24.112Z,2.60
2019-05-26T01:37:24.046Z,2.60
2019-05-26T01:38:24.566Z,2.10
2019-05-26T01:39:23.901Z,2.70
2019-05-26T01:40:23.835Z,2.30
2019-05-26T01:41:23.768Z,1.90
2019-05-26T01:42:23.690Z,2.00
2019-05-26T01:43:23.623Z,2.90
2019-05-26T01:44:23.567Z,2.80
2019-05-26T01:45:23.486Z,1.90
2019-05-26T01:46:23.431Z,1.70
2019-05-26T01:47:23.342Z,1.80
2019-05-26T01:48:23.269Z,3.30
2019-05-26T01:49:23.204Z,3.00
2019-05-26T01:50:23.130Z,1.70
2019-05-26T01:51:23.061Z,2.00
2019-05-26T01:52:23.007Z,3.00
2019-05-26T01:53:22.990Z,2.10
2019-05-26T01:54:22.849Z,2.70
2019-05-26T01:55:22.780Z,2.90
2019-05-26T01:56:22.711Z,3.10
2019-05-26T01:57:22.648Z,2.50
2019-05-26T01:58:22.564Z,2.70
2019-05-26T01:59:22.503Z,2.20
2019-05-26T02:00:22.429Z,2.60
2019-05-26T02:01:22.359Z,3.20
2019-05-26T02:02:22.286Z,2.10
2019-05-26T02:03:22.212Z,2.00
2019-05-26T02:04:22.150Z,2.40
2019-05-26T02:05:22.080Z,2.00
2019-05-26T02:06:22.005Z,1.90
2019-05-26T02:07:21.936Z,2.00
2019-05-26T02:08:21.866Z,2.10
2019-05-26T02:09:21.796Z,2.30
2019-05-26T02:10:21.726Z,2.30
2019-05-26T02:11:21.655Z,2.10
2019-05-26T02:12:21.585Z,3.20
2019-05-26T02:13:21.526Z,2.70
2019-05-26T02:14:21.445Z,2.80
2019-05-26T02:15:21.373Z,3.70
2019-05-26T02:16:21.321Z,1.90
2019-05-26T02:17:21.246Z,2.40
2019-05-26T02:18:21.224Z,2.50
2019-05-26T02:19:21.092Z,2.20
2019-05-26T02:20:21.022Z,2.00
2019-05-26T02:21:20.957Z,1.80
2019-05-26T02:22:20.883Z,3.30
2019-05-26T02:23:20.806Z,3.10
2019-05-26T02:24:20.743Z,2.40
2019-05-26T02:25:20.670Z,3.40
2019-05-26T02:26:20.599Z,2.20
2019-05-26T02:27:20.533Z,2.20
2019-05-26T02:28:20.461Z,2.00
2019-05-26T02:29:20.393Z,2.50
2019-05-26T02:30:20.323Z,2.60
2019-05-26T02:31:20.263Z,2.70
2019-05-26T02:32:20.179Z,2.20
2019-05-26T02:33:20.106Z,2.40
2019-05-26T02:34:20.043Z,2.00
2019-05-26T02:35:19.972Z,2.20
2019-05-26T02:36:19.899Z,2.50
2019-05-26T02:37:19.826Z,2.50
2019-05-26T02:38:19.777Z,2.80
2019-05-26T02:39:19.688Z,2.00
2019-05-26T02:40:19.619Z,2.10
2019-05-26T02:41:19.547Z,2.50
2019-05-26T02:42:19.481Z,2.70
2019-05-26T02:43:19.407Z,2.40
2019-05-26T02:44:19.374Z,2.50
2019-05-26T02:45:19.264Z,2.90
2019-05-26T02:46:19.195Z,2.10
2019-05-26T02:47:19.123Z,2.50
2019-05-26T02:48:19.051Z,1.90
2019-05-26T02:49:18.989Z,2.20
2019-05-26T02:50:18.914Z,2.20
2019-05-26T02:51:18.838Z,2.20
2019-05-26T02:52:18.775Z,2.40
2019-05-26T02:53:18.705Z,2.40
2019-05-26T02:54:18.634Z,2.30
2019-05-26T02:55:18.562Z,2.60
2019-05-26T02:56:18.496Z,3.70
2019-05-26T02:57:18.422Z,3.00
2019-05-26T02:58:18.354Z,3.30
2019-05-26T02:59:18.283Z,2.30
2019-05-26T03:00:18.213Z,2.50
2019-05-26T03:01:18.141Z,3.70
2019-05-26T03:02:18.072Z,3.40
2019-05-26T03:03:18.002Z,3.10
2019-05-26T03:04:17.935Z,4.40
2019-05-26T03:05:17.856Z,4.60
2019-05-26T03:06:17.819Z,4.30
2019-05-26T03:07:17.718Z,3.50
2019-05-26T03:08:17.648Z,2.70
2019-05-26T03:09:23.174Z,4.10
2019-05-26T03:10:17.542Z,2.20
2019-05-26T03:11:17.440Z,3.10
2019-05-26T03:12:17.367Z,2.30
2019-05-26T03:13:17.340Z,2.00
2019-05-26T03:14:17.228Z,3.60
2019-05-26T03:15:17.160Z,3.40
2019-05-26T03:16:17.090Z,3.10
2019-05-26T03:17:17.018Z,2.40
2019-05-26T03:18:16.946Z,2.10
2019-05-26T03:19:16.874Z,2.60
2019-05-26T03:20:16.806Z,3.80
2019-05-26T03:21:16.741Z,2.90
2019-05-26T03:22:16.661Z,4.10
2019-05-26T03:23:16.607Z,2.50
2019-05-26T03:24:16.529Z,3.10
2019-05-26T03:25:16.449Z,2.50
2019-05-26T03:26:16.385Z,2.20
2019-05-26T03:27:16.320Z,4.10
2019-05-26T03:28:16.242Z,2.20
2019-05-26T03:29:16.171Z,2.20
2019-05-26T03:30:16.109Z,3.70
2019-05-26T03:31:16.030Z,2.50
2019-05-26T03:32:15.969Z,2.90
2019-05-26T03:33:15.931Z,1.90
2019-05-26T03:34:15.817Z,2.40
2019-05-26T03:35:15.753Z,2.60
2019-05-26T03:36:15.681Z,2.30
2019-05-26T03:37:15.607Z,2.20
2019-05-26T03:38:15.533Z,3.00
2019-05-26T03:39:15.465Z,2.60
2019-05-26T03:40:15.391Z,1.90
2019-05-26T03:41:15.325Z,3.40
2019-05-26T03:42:15.272Z,3.10
2019-05-26T03:43:15.274Z,2.50
2019-05-26T03:44:15.119Z,3.20
2019-05-26T03:45:15.038Z,2.60
2019-05-26T03:46:14.978Z,3.70
2019-05-26T03:47:16.786Z,1.80
2019-05-26T03:48:14.832Z,2.70
2019-05-26T03:49:14.761Z,3.70
2019-05-26T03:50:14.684Z,3.50
2019-05-26T03:51:14.618Z,2.40
2019-05-26T03:52:14.550Z,2.20
2019-05-26T03:53:14.484Z,2.60
2019-05-26T03:54:14.404Z,2.20
2019-05-26T03:55:14.335Z,2.50
2019-05-26T03:56:14.290Z,2.30
2019-05-26T03:57:14.201Z,3.20
2019-05-26T03:58:14.126Z,2.10
2019-05-26T03:59:14.055Z,2.50
2019-05-26T04:00:13.984Z,2.60
2019-05-26T04:01:13.910Z,2.50
2019-05-26T04:02:13.862Z,2.20
2019-05-26T04:03:13.772Z,2.60
2019-05-26T04:04:13.706Z,3.20
2019-05-26T04:05:13.638Z,2.40
2019-05-26T04:06:13.559Z,4.10
2019-05-26T04:07:13.492Z,2.40
2019-05-26T04:08:13.417Z,2.70
2019-05-26T04:09:13.349Z,2.30
2019-05-26T04:10:13.275Z,3.00
2019-05-26T04:11:13.208Z,2.60
2019-05-26T04:12:13.152Z,2.80
2019-05-26T04:13:13.068Z,3.20
2019-05-26T04:14:13.002Z,3.50
2019-05-26T04:15:12.927Z,3.20
2019-05-26T04:16:12.856Z,2.30
2019-05-26T04:17:12.787Z,2.90
2019-05-26T04:18:12.712Z,3.00
2019-05-26T04:19:12.645Z,2.50
2019-05-26T04:20:12.572Z,2.70
2019-05-26T04:21:12.516Z,2.30
2019-05-26T04:22:12.431Z,2.70
2019-05-26T04:23:12.364Z,2.40
2019-05-26T04:24:12.299Z,2.90
2019-05-26T04:25:12.218Z,3.00
2019-05-26T04:26:12.158Z,2.40
2019-05-26T04:27:12.078Z,2.40
2019-05-26T04:28:12.008Z,2.30
2019-05-26T04:29:11.937Z,3.60
2019-05-26T04:30:11.863Z,2.50
2019-05-26T04:31:11.808Z,2.30
2019-05-26T04:32:11.724Z,2.20
2019-05-26T04:33:11.663Z,2.50
2019-05-26T04:34:11.579Z,2.40
2019-05-26T04:35:11.511Z,3.10
2019-05-26T04:36:11.438Z,2.70
2019-05-26T04:37:11.371Z,3.00
2019-05-26T04:38:11.297Z,2.30
2019-05-26T04:39:11.229Z,2.50
2019-05-26T04:40:25.611Z,2.30
2019-05-26T04:41:11.086Z,2.20
2019-05-26T04:42:11.018Z,2.50
2019-05-26T04:43:14.723Z,2.70
2019-05-26T04:44:10.875Z,2.30
2019-05-26T04:45:10.808Z,3.20
2019-05-26T04:46:10.830Z,3.20
2019-05-26T04:47:10.667Z,2.90
2019-05-26T04:48:10.594Z,2.10
2019-05-26T04:49:10.517Z,2.20
2019-05-26T04:50:10.451Z,2.50
2019-05-26T04:51:10.381Z,2.20
2019-05-26T04:52:10.314Z,2.50
2019-05-26T04:53:10.244Z,2.10
2019-05-26T04:54:10.168Z,2.20
2019-05-26T04:55:10.097Z,3.20
2019-05-26T04:56:10.027Z,2.10
2019-05-26T04:57:09.975Z,2.50
2019-05-26T04:58:09.885Z,3.30
2019-05-26T04:59:09.815Z,2.70
2019-05-26T05:00:09.743Z,2.10
2019-05-26T05:01:09.671Z,2.80
2019-05-26T05:02:09.601Z,2.40
2019-05-26T05:03:09.533Z,3.70
2019-05-26T05:04:09.461Z,2.50
2019-05-26T05:05:09.412Z,2.80
2019-05-26T05:06:09.317Z,2.70
2019-05-26T05:07:09.243Z,2.60
2019-05-26T05:08:09.173Z,2.20
2019-05-26T05:09:09.116Z,3.20
2019-05-26T05:10:09.051Z,3.00
2019-05-26T05:11:08.965Z,3.10
2019-05-26T05:12:08.895Z,2.90
2019-05-26T05:13:08.829Z,3.10
2019-05-26T05:14:08.749Z,2.70
2019-05-26T05:15:08.683Z,3.80
2019-05-26T05:16:08.615Z,3.40
2019-05-26T05:17:08.543Z,3.30
2019-05-26T05:18:08.489Z,2.30
2019-05-26T05:19:08.400Z,2.50
2019-05-26T05:20:08.351Z,2.70
2019-05-26T05:21:08.256Z,2.60
2019-05-26T05:22:08.190Z,2.70
2019-05-26T05:23:08.121Z,2.30
2019-05-26T05:24:08.044Z,3.40
2019-05-26T05:25:14.116Z,3.70
2019-05-26T05:26:07.909Z,2.50
2019-05-26T05:27:07.836Z,3.00
2019-05-26T05:28:07.766Z,2.90
2019-05-26T05:29:07.697Z,2.90
2019-05-26T05:30:07.623Z,2.20
2019-05-26T05:31:07.559Z,2.50
2019-05-26T05:32:07.488Z,2.70
2019-05-26T05:33:07.419Z,2.40
2019-05-26T05:34:07.347Z,2.50
2019-05-26T05:35:07.276Z,2.80
2019-05-26T05:36:07.208Z,2.40
2019-05-26T05:37:07.137Z,2.70
2019-05-26T05:38:07.066Z,2.40
2019-05-26T05:39:06.999Z,2.80
2019-05-26T05:40:06.946Z,3.00
2019-05-26T05:41:06.861Z,2.50
2019-05-26T05:42:06.782Z,2.50
2019-05-26T05:43:06.719Z,3.50
2019-05-26T05:44:06.645Z,2.70
2019-05-26T05:45:06.575Z,3.10
2019-05-26T05:46:06.504Z,3.20
2019-05-26T05:47:06.435Z,2.50
2019-05-26T05:48:06.363Z,2.20
2019-05-26T05:49:06.296Z,2.70
2019-05-26T05:50:06.225Z,2.30
2019-05-26T05:51:06.159Z,2.50
2019-05-26T05:52:06.087Z,3.70
2019-05-26T05:53:06.017Z,2.50
2019-05-26T05:54:05.978Z,2.90
2019-05-26T05:55:05.878Z,2.20
2019-05-26T05:56:05.831Z,2.50
2019-05-26T05:57:05.741Z,2.50
2019-05-26T05:58:05.669Z,2.90
2019-05-26T05:59:05.600Z,2.40
2019-05-26T06:00:05.529Z,2.70
2019-05-26T06:01:05.460Z,2.70
2019-05-26T06:02:05.391Z,2.40
2019-05-26T06:03:05.323Z,2.70
2019-05-26T06:04:05.255Z,2.30
2019-05-26T06:05:05.187Z,2.20
2019-05-26T06:06:05.190Z,2.20
2019-05-26T06:07:05.045Z,2.60
2019-05-26T06:08:04.970Z,2.00
2019-05-26T06:09:04.908Z,2.10
2019-05-26T06:10:04.837Z,3.00
2019-05-26T06:11:15.978Z,2.20
2019-05-26T06:12:04.697Z,2.60
2019-05-26T06:13:04.633Z,2.90
2019-05-26T06:14:04.562Z,2.20
2019-05-26T06:15:04.497Z,2.70
2019-05-26T06:16:04.423Z,3.10
2019-05-26T06:17:04.354Z,2.60
2019-05-26T06:18:04.309Z,2.90
2019-05-26T06:19:04.218Z,2.50
2019-05-26T06:20:04.155Z,2.30
2019-05-26T06:21:04.085Z,2.20
2019-05-26T06:22:04.014Z,2.10
2019-05-26T06:23:03.941Z,3.00
2019-05-26T06:24:03.874Z,2.70
2019-05-26T06:25:03.806Z,2.10
2019-05-26T06:26:03.765Z,1.90
2019-05-26T06:27:03.679Z,3.00
2019-05-26T06:28:03.605Z,2.30
2019-05-26T06:29:03.531Z,1.80
2019-05-26T06:30:03.461Z,1.80
2019-05-26T06:31:03.395Z,2.40
2019-05-26T06:32:03.683Z,2.10
2019-05-26T06:33:03.253Z,2.10
2019-05-26T06:34:03.185Z,2.20
2019-05-26T06:35:03.118Z,3.00
2019-05-26T06:36:03.052Z,2.50
2019-05-26T06:37:02.982Z,2.30
2019-05-26T06:38:02.922Z,2.20
2019-05-26T06:39:02.845Z,2.40
2019-05-26T06:40:02.778Z,1.80
2019-05-26T06:41:02.713Z,1.90
2019-05-26T06:42:02.639Z,3.10
2019-05-26T06:43:02.570Z,3.40
2019-05-26T06:44:02.515Z,2.40
2019-05-26T06:45:02.440Z,2.30
2019-05-26T06:46:02.386Z,2.10
2019-05-26T06:47:02.298Z,2.50
2019-05-26T06:48:02.237Z,2.70
2019-05-26T06:49:02.162Z,1.90
2019-05-26T06:50:02.093Z,2.60
2019-05-26T06:51:02.030Z,2.30
2019-05-26T06:52:01.979Z,1.70
2019-05-26T06:53:01.889Z,2.50
2019-05-26T06:54:01.824Z,1.80
2019-05-26T06:55:01.750Z,2.70
2019-05-26T06:56:01.684Z,2.50
2019-05-26T06:57:01.617Z,2.80
2019-05-26T06:58:01.551Z,2.00
2019-05-26T06:59:02.897Z,2.00
2019-05-26T07:00:01.425Z,1.80
2019-05-26T07:01:01.499Z,1.60
2019-05-26T07:02:01.279Z,3.00
2019-05-26T07:03:01.259Z,2.20
2019-05-26T07:04:01.139Z,2.20
2019-05-26T07:05:01.078Z,1.40
2019-05-26T07:06:01.008Z,1.90
2019-05-26T07:07:00.949Z,1.80
2019-05-26T07:08:00.919Z,2.00
2019-05-26T07:09:00.805Z,2.60
2019-05-26T07:10:00.736Z,2.40
2019-05-26T07:11:00.670Z,2.10
2019-05-26T07:12:00.796Z,2.50
2019-05-26T07:13:00.543Z,1.90
2019-05-26T07:14:00.458Z,1.70
2019-05-26T07:15:00.403Z,2.50
2019-05-26T07:16:00.327Z,2.20
2019-05-26T07:17:00.256Z,2.50
2019-05-26T07:18:00.191Z,1.90
2019-05-26T07:19:00.123Z,2.30
2019-05-26T07:20:00.059Z,1.70
2019-05-26T07:21:00.002Z,1.70
2019-05-26T07:21:59.917Z,1.90
2019-05-26T07:22:59.856Z,2.40
2019-05-26T07:23:59.787Z,1.80
2019-05-26T07:24:59.721Z,3.00
2019-05-26T07:25:59.654Z,2.40
2019-05-26T07:26:59.584Z,1.80
2019-05-26T07:27:59.519Z,2.20
2019-05-26T07:28:59.447Z,1.60
2019-05-26T07:29:59.380Z,2.30
2019-05-26T07:30:59.318Z,1.60
2019-05-26T07:31:59.248Z,1.90
2019-05-26T07:32:59.175Z,3.40
2019-05-26T07:33:59.112Z,2.20
2019-05-26T07:34:59.061Z,1.60
2019-05-26T07:35:58.979Z,1.90
2019-05-26T07:36:58.907Z,1.90
2019-05-26T07:37:58.843Z,1.60
2019-05-26T07:38:58.777Z,3.00
2019-05-26T07:39:58.764Z,3.80
2019-05-26T07:40:58.639Z,2.50
2019-05-26T07:42:09.878Z,2.00
2019-05-26T07:42:58.515Z,1.50
2019-05-26T07:43:58.441Z,2.40
2019-05-26T07:44:58.365Z,1.90
2019-05-26T07:45:58.301Z,2.30
2019-05-26T07:46:58.236Z,1.80
2019-05-26T07:47:58.169Z,2.00
2019-05-26T07:48:58.104Z,2.00
2019-05-26T07:49:58.031Z,2.40
2019-05-26T07:50:57.963Z,2.20
2019-05-26T07:51:57.897Z,2.10
2019-05-26T07:52:57.831Z,1.80
2019-05-26T07:53:57.767Z,3.50
2019-05-26T07:54:57.699Z,2.50
2019-05-26T07:55:57.628Z,2.20
2019-05-26T07:56:57.561Z,2.30
2019-05-26T07:57:57.492Z,2.40
2019-05-26T07:58:57.426Z,2.80
2019-05-26T07:59:57.357Z,1.90
2019-05-26T08:00:57.295Z,3.30
2019-05-26T08:01:57.225Z,2.70
2019-05-26T08:02:57.159Z,2.20
2019-05-26T08:03:57.091Z,2.40
2019-05-26T08:04:57.031Z,2.90
2019-05-26T08:05:56.955Z,2.80
2019-05-26T08:06:58.794Z,1.70
2019-05-26T08:09:30.897Z,2.40
2019-05-26T08:10:30.762Z,2.90
2019-05-26T08:12:30.423Z,1.50
2019-05-26T08:13:26.754Z,1.60
2019-05-26T08:15:22.081Z,1.40
2019-05-26T08:16:21.934Z,2.70
2019-05-26T08:18:17.195Z,1.50
2019-05-26T08:19:17.118Z,1.90
2019-05-26T08:21:12.416Z,1.50
2019-05-26T08:22:12.358Z,1.40
2019-05-26T08:24:07.557Z,1.90
2019-05-26T08:25:07.470Z,1.60
2019-05-26T08:27:02.768Z,1.90
2019-05-26T08:28:02.668Z,1.90
2019-05-26T08:30:01.482Z,1.90
2019-05-26T08:31:01.421Z,1.50
2019-05-26T08:32:01.337Z,1.60
2019-05-26T08:33:01.271Z,1.50
2019-05-26T08:34:01.205Z,1.30
2019-05-26T08:35:01.139Z,1.10
2019-05-26T08:36:01.065Z,1.30
2019-05-26T08:37:01.007Z,2.80
2019-05-26T08:38:00.938Z,1.80
2019-05-26T08:39:00.872Z,2.00
2019-05-26T08:40:00.807Z,2.70
2019-05-26T08:41:00.734Z,1.60
2019-05-26T08:42:00.674Z,1.40
2019-05-26T08:43:00.601Z,1.50
2019-05-26T08:44:00.539Z,1.50
2019-05-26T08:45:00.469Z,2.30
2019-05-26T08:46:00.406Z,1.30
2019-05-26T08:47:00.332Z,2.00
2019-05-26T08:48:00.273Z,2.20
2019-05-26T08:49:00.210Z,3.90
2019-05-26T08:50:00.150Z,1.70
2019-05-26T08:51:00.070Z,1.80
2019-05-26T08:52:00.008Z,2.00
2019-05-26T08:52:59.939Z,1.30
2019-05-26T08:53:59.876Z,1.70
2019-05-26T08:54:59.807Z,2.00
2019-05-26T08:55:59.739Z,1.60
2019-05-26T08:56:59.675Z,1.50
2019-05-26T08:57:59.610Z,1.30
2019-05-26T08:58:59.546Z,1.40
2019-05-26T08:59:59.477Z,1.70
2019-05-26T09:00:59.405Z,1.40
2019-05-26T09:01:59.348Z,2.60
2019-05-26T09:02:59.280Z,1.20
2019-05-26T09:03:59.206Z,1.40
2019-05-26T09:04:59.145Z,1.20
2019-05-26T09:05:59.075Z,1.50
2019-05-26T09:06:59.013Z,1.70
2019-05-26T09:07:58.951Z,1.30
2019-05-26T09:08:58.879Z,1.70
2019-05-26T09:09:58.812Z,1.50
2019-05-26T09:10:58.745Z,1.40
2019-05-26T09:11:58.681Z,1.10
2019-05-26T09:13:01.123Z,1.50
2019-05-26T09:13:58.548Z,1.20
2019-05-26T09:14:58.484Z,1.80
2019-05-26T09:15:58.412Z,1.30
2019-05-26T09:16:58.350Z,1.40
2019-05-26T09:17:58.284Z,1.80
2019-05-26T09:18:58.217Z,1.40
2019-05-26T09:19:58.159Z,1.10
2019-05-26T09:20:58.087Z,1.00
2019-05-26T09:21:58.016Z,1.20
2019-05-26T09:22:57.949Z,1.90
2019-05-26T09:23:57.935Z,2.10
2019-05-26T09:24:57.820Z,1.80
2019-05-26T09:25:57.757Z,2.10
2019-05-26T09:26:57.689Z,1.10
2019-05-26T09:27:57.638Z,3.10
2019-05-26T09:28:57.549Z,2.20
2019-05-26T09:29:57.489Z,1.50
2019-05-26T09:30:57.426Z,2.10
2019-05-26T09:31:57.360Z,1.70
2019-05-26T09:32:57.291Z,1.10
2019-05-26T09:33:57.221Z,1.30
2019-05-26T09:34:57.160Z,1.10
2019-05-26T09:35:57.093Z,1.30
2019-05-26T09:36:57.264Z,1.70
2019-05-26T09:37:56.961Z,2.20
2019-05-26T09:38:56.894Z,1.60
2019-05-26T09:39:56.825Z,1.20
2019-05-26T09:40:56.761Z,1.10
2019-05-26T09:41:56.697Z,3.30
2019-05-26T09:42:56.629Z,1.60
2019-05-26T09:43:56.563Z,1.50
2019-05-26T09:44:56.517Z,0.90
2019-05-26T09:45:56.438Z,0.80
2019-05-26T09:46:56.366Z,1.60
2019-05-26T09:47:56.301Z,1.10
2019-05-26T09:48:56.252Z,0.80
2019-05-26T09:49:56.167Z,1.40
2019-05-26T09:50:56.101Z,1.70
2019-05-26T09:51:56.035Z,1.90
2019-05-26T09:52:55.972Z,1.90
2019-05-26T09:54:01.575Z,1.40
2019-05-26T09:54:55.833Z,1.60
2019-05-26T09:55:55.772Z,1.50
2019-05-26T09:56:55.708Z,1.00
2019-05-26T09:57:55.638Z,1.00
2019-05-26T09:58:55.574Z,1.20
2019-05-26T09:59:55.507Z,0.70
2019-05-26T10:00:55.441Z,2.50
2019-05-26T10:01:55.371Z,0.90
2019-05-26T10:02:55.307Z,2.10
2019-05-26T10:03:55.241Z,1.30
2019-05-26T10:04:55.188Z,1.50
2019-05-26T10:05:55.105Z,1.50
2019-05-26T10:06:55.039Z,1.50
2019-05-26T10:07:54.981Z,0.80
2019-05-26T10:08:54.908Z,1.20
2019-05-26T10:09:54.844Z,1.70
2019-05-26T10:10:54.776Z,1.70
2019-05-26T10:11:54.707Z,1.50
2019-05-26T10:12:54.641Z,1.20
2019-05-26T10:13:54.578Z,1.60
2019-05-26T10:14:54.519Z,1.70
2019-05-26T10:15:54.457Z,2.70
2019-05-26T10:16:54.379Z,1.10
2019-05-26T10:17:54.319Z,1.60
2019-05-26T10:18:54.252Z,2.00
2019-05-26T10:19:54.185Z,1.70
2019-05-26T10:20:54.143Z,0.90
2019-05-26T10:21:54.063Z,1.30
2019-05-26T10:22:53.984Z,1.00
2019-05-26T10:23:53.918Z,0.70
2019-05-26T10:24:53.854Z,2.40
2019-05-26T10:25:53.784Z,1.60
2019-05-26T10:26:53.724Z,0.80
2019-05-26T10:27:53.656Z,1.00
2019-05-26T10:28:53.589Z,1.60
2019-05-26T10:29:53.519Z,1.30
2019-05-26T10:30:53.459Z,0.90
2019-05-26T10:31:53.390Z,1.10
2019-05-26T10:32:53.332Z,1.00
2019-05-26T10:33:53.256Z,0.90
2019-05-26T10:34:53.194Z,1.10
2019-05-26T10:35:53.123Z,1.20
2019-05-26T10:36:53.059Z,1.40
2019-05-26T10:37:52.996Z,1.00
2019-05-26T10:38:52.926Z,0.80
2019-05-26T10:39:52.876Z,1.60
2019-05-26T10:40:52.803Z,1.20
2019-05-26T10:41:52.734Z,1.10
2019-05-26T10:42:52.665Z,1.90
2019-05-26T10:43:52.602Z,1.10
2019-05-26T10:44:52.534Z,1.70
2019-05-26T10:45:52.469Z,1.10
2019-05-26T10:46:52.400Z,0.90
2019-05-26T10:47:52.336Z,1.20
2019-05-26T10:48:52.264Z,0.70
2019-05-26T10:49:52.216Z,0.90
2019-05-26T10:50:52.131Z,1.10
2019-05-26T10:51:52.072Z,1.70
2019-05-26T10:52:52.014Z,1.00
2019-05-26T10:53:51.937Z,0.80
2019-05-26T10:54:51.873Z,1.10
2019-05-26T10:55:51.802Z,1.40
2019-05-26T10:56:51.740Z,1.90
2019-05-26T10:57:51.673Z,0.80
2019-05-26T10:58:51.610Z,1.60
2019-05-26T10:59:51.535Z,0.80
2019-05-26T11:00:51.466Z,0.80
2019-05-26T11:01:51.404Z,1.10
2019-05-26T11:02:51.339Z,1.20
2019-05-26T11:03:51.272Z,1.20
2019-05-26T11:04:51.207Z,1.00
2019-05-26T11:05:51.136Z,2.40
2019-05-26T11:06:51.073Z,0.80
2019-05-26T11:07:51.008Z,1.10
2019-05-26T11:08:50.937Z,1.80
2019-05-26T11:09:50.909Z,1.30
2019-05-26T11:10:50.806Z,1.10
2019-05-26T11:11:50.742Z,0.50
2019-05-26T11:12:50.673Z,2.50
2019-05-26T11:14:02.404Z,0.90
2019-05-26T11:14:50.539Z,1.20
2019-05-26T11:15:50.476Z,0.70
2019-05-26T11:16:50.409Z,2.40
2019-05-26T11:17:50.342Z,1.20
2019-05-26T11:18:50.276Z,1.10
2019-05-26T11:19:50.208Z,0.70
2019-05-26T11:20:50.144Z,1.70
2019-05-26T11:21:50.075Z,1.90
2019-05-26T11:22:50.010Z,1.60
2019-05-26T11:23:49.943Z,1.90
2019-05-26T11:24:49.874Z,0.60
2019-05-26T11:25:49.808Z,1.30
2019-05-26T11:26:49.751Z,1.80
2019-05-26T11:27:49.677Z,0.60
2019-05-26T11:28:49.609Z,2.20
2019-05-26T11:29:49.545Z,0.70
2019-05-26T11:30:49.484Z,0.90
2019-05-26T11:31:49.414Z,1.20
2019-05-26T11:32:49.351Z,0.80
2019-05-26T11:33:49.284Z,0.70
2019-05-26T11:35:01.080Z,0.90
2019-05-26T11:35:49.152Z,0.70
2019-05-26T11:36:49.095Z,0.80
2019-05-26T11:37:49.013Z,1.60
2019-05-26T11:38:48.947Z,1.30
2019-05-26T11:39:48.884Z,2.00
2019-05-26T11:40:48.849Z,1.60
2019-05-26T11:41:54.564Z,1.00
2019-05-26T11:42:48.681Z,1.00
2019-05-26T11:43:48.620Z,0.80
2019-05-26T11:44:48.554Z,1.40
2019-05-26T11:45:48.493Z,0.80
2019-05-26T11:46:48.424Z,1.20
2019-05-26T11:47:48.352Z,0.60
2019-05-26T11:48:48.285Z,1.40
2019-05-26T11:49:48.217Z,0.90
2019-05-26T11:50:48.156Z,0.90
2019-05-26T11:51:48.088Z,0.80
2019-05-26T11:52:48.019Z,1.00
2019-05-26T11:53:47.958Z,0.70
2019-05-26T11:54:47.891Z,1.10
2019-05-26T11:55:47.842Z,1.60
2019-05-26T11:56:47.752Z,1.40
2019-05-26T11:57:47.693Z,1.30
2019-05-26T11:58:47.626Z,1.50
2019-05-26T11:59:47.610Z,1.10
2019-05-26T12:00:47.518Z,1.10
2019-05-26T12:01:47.486Z,0.70
2019-05-26T12:02:47.360Z,2.90
2019-05-26T12:03:47.290Z,1.50
2019-05-26T12:04:47.228Z,1.70
2019-05-26T12:05:47.165Z,0.80
2019-05-26T12:06:47.104Z,1.10
2019-05-26T12:07:47.033Z,1.10
2019-05-26T12:08:46.958Z,1.90
2019-05-26T12:09:46.896Z,1.00
2019-05-26T12:10:46.825Z,1.20
2019-05-26T12:11:46.773Z,0.70
2019-05-26T12:12:46.707Z,1.60
2019-05-26T12:13:46.631Z,0.90
2019-05-26T12:14:46.566Z,0.50
2019-05-26T12:15:46.502Z,0.70
2019-05-26T12:16:46.432Z,1.00
2019-05-26T12:17:46.386Z,1.50
2019-05-26T12:18:46.307Z,2.50
2019-05-26T12:19:46.236Z,0.60
2019-05-26T12:20:46.163Z,1.10
2019-05-26T12:21:46.102Z,0.80
2019-05-26T12:22:46.036Z,1.10
2019-05-26T12:23:45.967Z,0.90
2019-05-26T12:24:45.902Z,1.00
2019-05-26T12:25:45.837Z,1.80
2019-05-26T12:26:45.773Z,1.20
2019-05-26T12:27:45.709Z,1.20
2019-05-26T12:28:45.638Z,1.80
2019-05-26T12:29:45.568Z,1.30
2019-05-26T12:30:45.505Z,2.70
2019-05-26T12:31:45.440Z,1.20
2019-05-26T12:32:45.456Z,2.20
2019-05-26T12:33:45.307Z,1.90
2019-05-26T12:34:45.240Z,2.20
2019-05-26T12:35:45.175Z,1.40
2019-05-26T12:36:45.106Z,1.60
2019-05-26T12:37:48.331Z,2.70
2019-05-26T12:38:44.972Z,1.20
2019-05-26T12:39:44.905Z,1.20
2019-05-26T12:40:44.845Z,1.00
2019-05-26T12:41:44.772Z,1.70
2019-05-26T12:42:44.710Z,2.10
2019-05-26T12:43:44.643Z,0.70
2019-05-26T12:44:49.409Z,1.00
2019-05-26T12:45:44.509Z,1.50
2019-05-26T12:46:44.442Z,1.00
2019-05-26T12:47:44.377Z,0.60
2019-05-26T12:48:44.310Z,1.30
2019-05-26T12:49:44.247Z,1.00
2019-05-26T12:50:44.175Z,1.60
2019-05-26T12:51:44.110Z,0.50
2019-05-26T12:52:44.042Z,1.20
2019-05-26T12:53:43.975Z,0.80
2019-05-26T12:54:43.907Z,1.20
2019-05-26T12:55:43.842Z,1.70
2019-05-26T12:56:43.776Z,1.20
2019-05-26T12:57:43.711Z,1.00
2019-05-26T12:58:43.642Z,1.00
2019-05-26T12:59:43.575Z,0.60
2019-05-26T13:00:49.475Z,1.50
2019-05-26T13:01:43.448Z,1.80
2019-05-26T13:02:43.423Z,1.60
2019-05-26T13:03:43.314Z,0.80
2019-05-26T13:04:43.248Z,1.40
2019-05-26T13:05:43.177Z,0.60
2019-05-26T13:06:43.115Z,1.10
2019-05-26T13:07:43.046Z,1.00
2019-05-26T13:08:42.981Z,1.10
2019-05-26T13:09:42.938Z,2.10
2019-05-26T13:10:42.842Z,1.20
2019-05-26T13:11:42.778Z,2.40
2019-05-26T13:12:42.714Z,1.70
2019-05-26T13:13:42.644Z,1.20
2019-05-26T13:14:42.582Z,1.00
2019-05-26T13:15:42.515Z,1.00
2019-05-26T13:16:42.449Z,1.00
2019-05-26T13:17:42.386Z,1.20
2019-05-26T13:18:42.331Z,0.80
2019-05-26T13:19:42.252Z,0.80
2019-05-26T13:20:42.182Z,1.60
2019-05-26T13:21:42.119Z,0.60
2019-05-26T13:22:42.092Z,1.30
2019-05-26T13:23:41.984Z,0.60
2019-05-26T13:24:41.918Z,0.40
2019-05-26T13:25:41.864Z,0.50